Terminal Aerodrome Forecast
Issued by NWS Quad Cities IA IL

Home | Current Version | Previous Version | Text Only | Print | Product List | Glossary On
Versions: 1 2 3 4 5 6 7 8 9 10 11 12 13 14 15 16 17 18 19 20 21 22 23 24 25 26
000
FTUS43 KDVN 291542 AAB
TAFDBQ
TAF AMD
KDBQ 291542Z 2916/3012 20009KT P6SM VCSH SCT009 BKN100
      TEMPO 2916/2918 BKN010
     FM291800 21010KT P6SM SCT050 BKN100
     FM292000 23011KT P6SM VCTS BKN040CB
     FM300200 23005KT 4SM TSRA BR BKN030CB
     FM300600 26009KT 2SM -SHRA BR BKN012=

USA.gov is the U.S. government's official web portal to all federal, state and local government web resources and services.